createdAt,value
2022-09-24T00:04:12.205Z,0.50
2022-09-24T00:14:17.664Z,0.70
2022-09-24T00:24:34.607Z,0.40
2022-09-24T00:34:39.110Z,0.60
2022-09-24T00:44:54.472Z,0.50
2022-09-24T00:54:59.351Z,0.68
2022-09-24T01:05:02.430Z,0.90
2022-09-24T01:15:15.474Z,0.60
2022-09-24T01:25:25.531Z,0.50
2022-09-24T01:35:32.321Z,0.60
2022-09-24T01:45:37.213Z,0.55
2022-09-24T01:55:45.354Z,0.50
2022-09-24T02:05:51.656Z,0.50
2022-09-24T02:16:00.231Z,1.12
2022-09-24T02:26:03.626Z,0.82
2022-09-24T02:36:09.127Z,0.82
2022-09-24T02:46:12.358Z,0.90
2022-09-24T02:56:16.845Z,0.60
2022-09-24T03:06:20.146Z,0.55
2022-09-24T03:16:24.795Z,0.60
2022-09-24T03:26:28.270Z,1.33
2022-09-24T03:36:32.721Z,0.50
2022-09-24T03:46:35.836Z,0.40
2022-09-24T03:56:40.361Z,1.00
2022-09-24T04:06:43.397Z,0.60
2022-09-24T04:16:48.247Z,0.60
2022-09-24T04:26:51.428Z,0.52
2022-09-24T04:36:55.955Z,0.70
2022-09-24T04:47:02.932Z,0.62
2022-09-24T04:57:07.947Z,0.70
2022-09-24T05:07:11.468Z,0.70
2022-09-24T05:17:15.964Z,0.60
2022-09-24T05:27:19.689Z,0.70
2022-09-24T05:37:24.131Z,0.85
2022-09-24T05:47:27.845Z,0.40
2022-09-24T05:57:32.331Z,0.70
2022-09-24T06:07:35.463Z,1.05
2022-09-24T06:17:39.885Z,1.20
2022-09-24T06:27:42.930Z,0.60
2022-09-24T06:37:49.301Z,0.80
2022-09-24T06:47:56.152Z,0.40
2022-09-24T06:58:11.814Z,0.93
2022-09-24T07:08:15.110Z,0.73
2022-09-24T07:18:20.305Z,0.57
2022-09-24T07:28:24.096Z,0.35
2022-09-24T07:38:28.563Z,0.68
2022-09-24T07:48:31.612Z,0.37
2022-09-24T07:58:36.443Z,0.50
2022-09-24T08:08:40.030Z,0.55
2022-09-24T08:18:45.005Z,0.60
2022-09-24T08:28:51.836Z,0.32
2022-09-24T08:38:56.354Z,0.30
2022-09-24T08:49:00.417Z,0.45
2022-09-24T08:59:12.335Z,0.50
2022-09-24T09:09:18.124Z,0.55
2022-09-24T09:19:26.275Z,0.40
2022-09-24T09:29:30.773Z,0.52
2022-09-24T09:39:43.605Z,0.43
2022-09-24T09:49:48.836Z,0.20
2022-09-24T09:59:55.086Z,0.35
2022-09-24T10:10:03.347Z,0.20
2022-09-24T10:20:15.744Z,0.30
2022-09-24T10:30:37.735Z,0.30
2022-09-24T10:50:48.959Z,0.20
2022-09-24T11:01:01.238Z,0.20
2022-09-24T11:11:14.670Z,0.10
2022-09-24T11:21:30.030Z,0.40
2022-09-24T11:31:37.805Z,0.22
2022-09-24T11:41:50.274Z,0.10
2022-09-24T11:51:56.316Z,0.10
2022-09-24T12:02:04.631Z,0.10
2022-09-24T12:12:10.121Z,0.10
2022-09-24T12:22:14.809Z,0.10
2022-09-24T12:32:38.480Z,0.20
2022-09-24T12:42:45.017Z,0.10
2022-09-24T12:52:48.180Z,0.10
2022-09-24T13:02:55.186Z,0.10
2022-09-24T13:12:59.996Z,0.15
2022-09-24T13:23:15.887Z,0.28
2022-09-24T13:33:24.043Z,0.15
2022-09-24T13:43:38.163Z,0.10
2022-09-24T13:53:44.385Z,0.20
2022-09-24T14:03:55.847Z,0.20
2022-09-24T14:13:59.237Z,0.15
2022-09-24T14:24:07.236Z,0.20
2022-09-24T14:34:24.579Z,0.20
2022-09-24T14:44:31.128Z,0.20
2022-09-24T14:54:35.649Z,0.10
2022-09-24T15:04:40.091Z,0.22
2022-09-24T15:14:43.204Z,0.20
2022-09-24T15:24:47.634Z,0.20
2022-09-24T15:34:50.697Z,0.20
2022-09-24T15:44:55.421Z,0.13
2022-09-24T15:55:01.304Z,0.20
2022-09-24T16:05:11.134Z,0.20
2022-09-24T16:15:15.837Z,0.10
2022-09-24T16:25:20.403Z,0.20
2022-09-24T16:35:23.550Z,0.17
2022-09-24T16:45:28.342Z,0.30
2022-09-24T16:55:31.542Z,0.30
2022-09-24T17:05:40.772Z,0.20
2022-09-24T17:15:43.976Z,0.20
2022-09-24T17:25:48.560Z,0.20
2022-09-24T17:35:54.912Z,0.50
2022-09-24T17:46:03.008Z,0.30
2022-09-24T17:56:08.184Z,0.40
2022-09-24T18:06:14.792Z,0.43
2022-09-24T18:16:19.058Z,0.50
2022-09-24T18:26:24.828Z,0.43
2022-09-24T18:36:27.949Z,0.55
2022-09-24T18:46:33.185Z,0.40
2022-09-24T18:56:37.358Z,0.60
2022-09-24T19:06:43.313Z,0.70
2022-09-24T19:16:47.129Z,0.30
2022-09-24T19:26:52.329Z,0.50
2022-09-24T19:36:56.161Z,0.60
2022-09-24T19:47:00.589Z,0.70
2022-09-24T19:57:03.698Z,0.50
2022-09-24T20:07:08.500Z,0.57
2022-09-24T20:17:11.750Z,0.35
2022-09-24T20:27:33.986Z,0.60
2022-09-24T20:47:42.233Z,0.50
2022-09-24T20:57:45.333Z,1.02
2022-09-24T21:07:49.952Z,1.10
2022-09-24T21:18:18.315Z,1.23
2022-09-24T21:28:17.889Z,0.68
2022-09-24T21:38:20.965Z,0.40
2022-09-24T21:48:25.992Z,0.50
2022-09-24T21:58:29.802Z,0.37
2022-09-24T22:08:34.405Z,0.57
2022-09-24T22:18:38.113Z,0.68
2022-09-24T22:28:43.506Z,1.05
2022-09-24T22:38:47.816Z,0.82
2022-09-24T22:48:52.245Z,0.43
2022-09-24T22:58:56.929Z,0.50
2022-09-24T23:09:02.087Z,0.50
2022-09-24T23:19:06.659Z,0.55
2022-09-24T23:29:12.514Z,1.05
2022-09-24T23:39:15.823Z,0.50
2022-09-24T23:49:20.302Z,0.50
2022-09-24T23:59:23.335Z,1.20
